Pola Atlantic — 9HA2504 — position and weather

sailwx.info

Track history (hours):
 
Tides and Currents Weather Stations Pressure Air Temp Water Temp Dewpoint Dewpoint Depression Visibility Wind Speed Wind Dir Waves Ship Positions

Pola Atlantic

Last reported at 2017-Sep-21 18:55 UTC. Time now 2017-Sep-22 02:30 UTC.
Position N 55°46' E 016°44'.

Length 180 m; draft 7 m.

Type: Cargo ship. MMSI: 248769000.

Date/timePositionNaut miles runAvg speedWind from/ knotsBaromVisibWave heightAir tempDewpointWater temp
2017-Sep-21 18:55N 55°46' E 016°44'1012.2
2017-Sep-21 18:05N 55°45' E 016°26'112.4
2017-Sep-21 18:00N 55°44' E 016°24'612.4
2017-Sep-21 17:30N 55°43' E 016°14'612.5
2017-Sep-21 17:00N 55°42' E 016°03'1812.7
2017-Sep-21 15:35N 55°37' E 015°32'1212.6
2017-Sep-21 14:35N 55°32' E 015°11'612.5
2017-Sep-21 14:06N 55°30' E 015°02'412.4
2017-Sep-21 13:47N 55°28' E 014°55'412.4
2017-Sep-21 13:29N 55°26' E 014°49'612.4
2017-Sep-21 13:00N 55°24' E 014°40'612.3
2017-Sep-21 12:30N 55°19' E 014°33'612.4
2017-Sep-21 12:00N 55°14' E 014°26'612.6
2017-Sep-21 11:30N 55°09' E 014°19'612.8
2017-Sep-21 11:00N 55°04' E 014°13'612.3
2017-Sep-21 10:29N 55°00' E 014°04'4412.7
2017-Sep-21 07:02N 54°46' E 012°51'012.6
2017-Sep-21 07:00N 54°46' E 012°51'612.4
2017-Sep-21 06:30N 54°44' E 012°41'612.7
2017-Sep-21 06:00N 54°40' E 012°32'912.8
2017-Sep-21 05:19N 54°35' E 012°19'612.6
2017-Sep-21 04:52N 54°30' E 012°16'412.2
2017-Sep-21 04:30N 54°26' E 012°12'611.9
2017-Sep-21 04:00N 54°24' E 012°02'612.9
2017-Sep-21 03:30N 54°25' E 011°51'1212.9
2017-Sep-21 02:33N 54°29' E 011°32'113.3
2017-Sep-21 02:28N 54°30' E 011°30'612.8
2017-Sep-21 02:00N 54°32' E 011°21'612.7
2017-Sep-21 01:30N 54°35' E 011°11'612.6
2017-Sep-21 01:00N 54°38' E 011°02'612.8
2017-Sep-21 00:30N 54°42' E 010°53'612.1
2017-Sep-21 00:00N 54°48' E 010°52'612.0
2017-Sep-20 23:30N 54°54' E 010°53'611.5
2017-Sep-20 23:00N 54°58' E 010°59'611.7
2017-Sep-20 22:30N 55°04' E 011°02'612.1
2017-Sep-20 22:00N 55°10' E 011°03'611.0
2017-Sep-20 21:30N 55°16' E 011°04'612.7
2017-Sep-20 21:00N 55°22' E 011°02'114 7.1
2017-Sep-20 04:51N 57°15' E 011°33'613.1
2017-Sep-20 04:22N 57°21' E 011°29'512.7
2017-Sep-20 04:00N 57°25' E 011°26'612.0
2017-Sep-20 03:30N 57°30' E 011°20'612.6
2017-Sep-20 03:00N 57°34' E 011°10'612.8
2017-Sep-20 02:30N 57°39' E 011°02'712.5
2017-Sep-20 01:59N 57°43' E 010°53'612.2
2017-Sep-20 01:29N 57°47' E 010°45'611.9
2017-Sep-20 00:58N 57°48' E 010°33'612.8
2017-Sep-20 00:30N 57°48' E 010°22'712.5
2017-Sep-19 23:55N 57°48' E 010°08'8612.8
2017-Sep-19 17:14N 57°41' E 007°28'312.4
2017-Sep-19 16:59N 57°41' E 007°22'612.4
2017-Sep-19 16:30N 57°41' E 007°11'612.5
2017-Sep-19 16:00N 57°42' E 006°59'712.8
2017-Sep-19 15:29N 57°42' E 006°47'612.4
2017-Sep-19 15:00N 57°42' E 006°36'612.3
2017-Sep-19 14:30N 57°46' E 006°26'613.0
2017-Sep-19 14:00N 57°50' E 006°17'713.1
2017-Sep-19 13:30N 57°54' E 006°07'613.1
2017-Sep-19 13:00N 57°58' E 005°58'612.6
2017-Sep-19 12:30N 58°02' E 005°49'1512.7
2017-Sep-19 11:17N 58°13' E 005°27'712.7
2017-Sep-19 10:43N 58°17' E 005°17'312.5
2017-Sep-19 10:28N 58°20' E 005°13'1212.3
2017-Sep-19 09:28N 58°32' E 005°11'612.1
2017-Sep-19 09:00N 58°38' E 005°10'612.7
2017-Sep-19 08:30N 58°44' E 005°09'612.1
2017-Sep-19 08:00N 58°50' E 005°08'612.2
2017-Sep-19 07:30N 58°56' E 005°08'612.3
2017-Sep-19 07:00N 59°02' E 005°06'612.3
2017-Sep-19 06:30N 59°07' E 005°14'3 6.8
2017-Sep-19 06:00N 59°09' E 005°09'612.3
2017-Sep-19 05:29N 59°15' E 005°06'612.4
2017-Sep-19 05:00N 59°21' E 005°06'611.6
2017-Sep-19 04:30N 59°27' E 005°10'612.3
2017-Sep-19 04:00N 59°33' E 005°12'713.3
2017-Sep-19 03:29N 59°38' E 005°19'612.8
2017-Sep-19 03:00N 59°43' E 005°27'612.8
2017-Sep-19 02:30N 59°48' E 005°35'612.9
2017-Sep-19 02:00N 59°53' E 005°43'612.7
2017-Sep-19 01:30N 59°58' E 005°50'612.5
2017-Sep-19 01:00N 60°03' E 005°59'611.7
2017-Sep-19 00:30N 60°08' E 006°06'511.1
2017-Sep-19 00:00N 60°13' E 006°06'611.3
2017-Sep-18 23:30N 60°18' E 006°13'612.5
2017-Sep-18 23:00N 60°23' E 006°21'612.3
2017-Sep-18 22:30N 60°26' E 006°32'510.0
2017-Sep-18 22:00N 60°24' E 006°41'612.6
2017-Sep-18 21:30N 60°18' E 006°37'612.7
2017-Sep-18 21:00N 60°12' E 006°35'5 9.1
2017-Sep-18 20:30N 60°07' E 006°33'0 0.4
2017-Sep-18 19:59N 60°07' E 006°33'0 0.0
2017-Sep-18 19:29N 60°07' E 006°33'0 0.0
2017-Sep-18 18:59N 60°07' E 006°33'0 0.0
2017-Sep-18 18:29N 60°07' E 006°33'0 0.0
2017-Sep-18 17:59N 60°07' E 006°33'0 0.0
2017-Sep-18 17:29N 60°07' E 006°33'0 0.0
2017-Sep-18 16:59N 60°07' E 006°33'0 0.0
2017-Sep-18 16:29N 60°07' E 006°33'0 0.0
2017-Sep-18 15:59N 60°07' E 006°33'0 0.0
2017-Sep-18 15:29N 60°07' E 006°33'0 0.0
2017-Sep-18 14:59N 60°07' E 006°33'0 0.0
2017-Sep-18 14:29N 60°07' E 006°33'0 0.0
2017-Sep-18 13:59N 60°07' E 006°33'0 0.0
2017-Sep-18 13:29N 60°07' E 006°33'0 0.0
2017-Sep-18 12:59N 60°07' E 006°33'0 0.0
2017-Sep-18 12:29N 60°07' E 006°33'0 0.0
2017-Sep-18 11:59N 60°07' E 006°33'0 0.0
2017-Sep-18 11:29N 60°07' E 006°33'0 0.0
2017-Sep-18 10:59N 60°07' E 006°33'0 0.0
2017-Sep-18 10:29N 60°07' E 006°33'0 0.0
2017-Sep-18 09:59N 60°07' E 006°33'0 0.0
2017-Sep-18 09:29N 60°07' E 006°33'0 0.0
2017-Sep-18 08:59N 60°07' E 006°33'0 0.0
2017-Sep-18 08:29N 60°07' E 006°33'0 0.0
2017-Sep-18 07:59N 60°07' E 006°33'0 0.0
2017-Sep-18 07:29N 60°07' E 006°33'0 0.0
2017-Sep-18 06:59N 60°07' E 006°33'0 0.0
2017-Sep-18 06:29N 60°07' E 006°33'0 0.0
2017-Sep-18 05:59N 60°07' E 006°33'0 0.0
2017-Sep-18 05:29N 60°07' E 006°33'0 0.0
2017-Sep-18 04:59N 60°07' E 006°33'0 0.0
2017-Sep-18 04:29N 60°07' E 006°33'0 0.0
2017-Sep-18 03:59N 60°07' E 006°33'0 0.0
2017-Sep-18 03:29N 60°07' E 006°33'0 0.0
2017-Sep-18 02:59N 60°07' E 006°33'0 0.0
2017-Sep-18 02:29N 60°07' E 006°33'0 0.0
2017-Sep-18 01:59N 60°07' E 006°33'0 0.0
2017-Sep-18 01:29N 60°07' E 006°33'0 0.0
2017-Sep-18 00:59N 60°07' E 006°33'0 0.0
2017-Sep-18 00:29N 60°07' E 006°33'0 0.0
2017-Sep-17 23:59N 60°07' E 006°33'0 0.0
2017-Sep-17 23:29N 60°07' E 006°33'0 0.0
2017-Sep-17 22:59N 60°07' E 006°33'0 0.0
2017-Sep-17 22:29N 60°07' E 006°33'0 0.0
2017-Sep-17 21:59N 60°07' E 006°33'0 0.0
2017-Sep-17 21:29N 60°07' E 006°33'0 0.0
2017-Sep-17 20:59N 60°07' E 006°33'0 0.0
2017-Sep-17 20:29N 60°07' E 006°33'0 0.0
2017-Sep-17 19:59N 60°07' E 006°33'0 0.0
2017-Sep-17 19:29N 60°07' E 006°33'0 0.0
2017-Sep-17 18:59N 60°07' E 006°33'0 0.0
2017-Sep-17 18:29N 60°07' E 006°33'0 0.0
2017-Sep-17 17:59N 60°07' E 006°33'0 0.0
2017-Sep-17 17:29N 60°07' E 006°33'0 0.0
2017-Sep-17 16:59N 60°07' E 006°33'0 0.0
2017-Sep-17 16:29N 60°07' E 006°33'0 0.0
2017-Sep-17 15:59N 60°07' E 006°33'0 0.0
2017-Sep-17 15:29N 60°07' E 006°33'0 0.0
2017-Sep-17 14:59N 60°07' E 006°33'0 0.0
2017-Sep-17 14:29N 60°07' E 006°33'0 0.0
2017-Sep-17 13:59N 60°07' E 006°33'0 0.0
2017-Sep-17 13:29N 60°07' E 006°33'0 0.0
2017-Sep-17 12:59N 60°07' E 006°33'0 0.0
2017-Sep-17 12:29N 60°07' E 006°33'0 0.0
2017-Sep-17 11:59N 60°07' E 006°33'0 0.0
2017-Sep-17 11:29N 60°07' E 006°33'0 0.0
2017-Sep-17 10:59N 60°07' E 006°33'0 0.0
2017-Sep-17 10:26N 60°07' E 006°33'0 0.0
2017-Sep-17 09:59N 60°07' E 006°33'0 0.0
2017-Sep-17 09:29N 60°07' E 006°33'0 0.0
2017-Sep-17 08:59N 60°07' E 006°33'0 0.0
2017-Sep-17 08:29N 60°07' E 006°33'0 0.0
2017-Sep-17 07:59N 60°07' E 006°33'0 0.0
2017-Sep-17 07:29N 60°07' E 006°33'0 0.0
2017-Sep-17 06:59N 60°07' E 006°33'0 0.0
2017-Sep-17 06:29N 60°07' E 006°33'0 0.0
2017-Sep-17 05:59N 60°07' E 006°33'0 0.0
2017-Sep-17 05:29N 60°07' E 006°33'0 0.0
2017-Sep-17 04:59N 60°07' E 006°33'0 0.0
2017-Sep-17 04:29N 60°07' E 006°33'0 0.0
2017-Sep-17 03:59N 60°07' E 006°33'0 0.0
2017-Sep-17 03:29N 60°07' E 006°33'0 0.0
2017-Sep-17 02:59N 60°07' E 006°33'0 0.0
2017-Sep-17 02:29N 60°07' E 006°33'0 0.0
2017-Sep-17 01:59N 60°07' E 006°33'0 0.0
2017-Sep-17 01:29N 60°07' E 006°33'0 0.0
2017-Sep-17 00:59N 60°07' E 006°33'0 0.0
2017-Sep-17 00:29N 60°07' E 006°33'0 0.0
2017-Sep-16 23:59N 60°07' E 006°33'0 0.0
2017-Sep-16 23:29N 60°07' E 006°33'0 0.0
2017-Sep-16 22:59N 60°07' E 006°33'0 0.0
2017-Sep-16 22:29N 60°07' E 006°33'0 0.0
2017-Sep-16 21:59N 60°07' E 006°33'0 0.0
2017-Sep-16 21:29N 60°07' E 006°33'0 0.0
2017-Sep-16 20:59N 60°07' E 006°33'0 0.0
2017-Sep-16 20:29N 60°07' E 006°33'0 0.0
2017-Sep-16 19:59N 60°07' E 006°33'0 0.0
2017-Sep-16 19:29N 60°07' E 006°33'0 0.0
2017-Sep-16 18:59N 60°07' E 006°33'0 0.0
2017-Sep-16 18:29N 60°07' E 006°33'0 0.0
2017-Sep-16 17:59N 60°07' E 006°33'0 0.0
2017-Sep-16 17:29N 60°07' E 006°33'0 0.0
2017-Sep-16 16:59N 60°07' E 006°33'0 0.0
2017-Sep-16 16:29N 60°07' E 006°33'0 0.0
2017-Sep-16 15:59N 60°07' E 006°33'0 0.0
2017-Sep-16 15:29N 60°07' E 006°33'0 0.0
2017-Sep-16 14:59N 60°07' E 006°33'0 0.0
2017-Sep-16 14:29N 60°07' E 006°33'0 0.0
2017-Sep-16 13:59N 60°07' E 006°33'0 0.0
2017-Sep-16 13:29N 60°07' E 006°33'0 0.0
2017-Sep-16 12:59N 60°07' E 006°33'0 0.0
2017-Sep-16 12:29N 60°07' E 006°33'0 0.0
2017-Sep-16 11:59N 60°07' E 006°33'0 0.0
2017-Sep-16 11:29N 60°07' E 006°33'0 0.0
2017-Sep-16 10:59N 60°07' E 006°33'0 0.0
2017-Sep-16 10:29N 60°07' E 006°33'0 0.0
2017-Sep-16 09:59N 60°07' E 006°33'0 0.0
2017-Sep-16 09:29N 60°07' E 006°33'0 0.0
2017-Sep-16 08:59N 60°07' E 006°33'0 0.0
2017-Sep-16 08:29N 60°07' E 006°33'0 0.0
2017-Sep-16 07:59N 60°07' E 006°33'0 0.0
2017-Sep-16 07:29N 60°07' E 006°33'0 0.0
2017-Sep-16 06:59N 60°07' E 006°33'0 0.0
2017-Sep-16 06:29N 60°07' E 006°33'0 0.0
2017-Sep-16 05:59N 60°07' E 006°33'0 0.0
2017-Sep-16 05:29N 60°07' E 006°33'0 0.0
2017-Sep-16 04:59N 60°07' E 006°33'0 0.0
2017-Sep-16 04:29N 60°07' E 006°33'0 0.0
2017-Sep-16 03:53N 60°07' E 006°33'0 0.0
2017-Sep-16 03:29N 60°07' E 006°33'0 0.0
2017-Sep-16 02:59N 60°07' E 006°33'0 0.0
2017-Sep-16 02:29N 60°07' E 006°33'0 0.0
2017-Sep-16 01:59N 60°07' E 006°33'0 0.0
2017-Sep-16 01:29N 60°07' E 006°33'0 0.0
2017-Sep-16 00:59N 60°07' E 006°33'0 0.0
2017-Sep-16 00:29N 60°07' E 006°33'0 0.0
2017-Sep-15 23:59N 60°07' E 006°33'0 0.0
2017-Sep-15 23:29N 60°07' E 006°33'0 0.0
2017-Sep-15 22:59N 60°07' E 006°33'0 0.0
2017-Sep-15 22:29N 60°07' E 006°33'0 0.0
2017-Sep-15 21:59N 60°07' E 006°33'0 0.0
2017-Sep-15 21:29N 60°07' E 006°33'0 0.0
2017-Sep-15 20:59N 60°07' E 006°33'0 0.0
2017-Sep-15 20:29N 60°07' E 006°33'0 0.0
2017-Sep-15 19:59N 60°07' E 006°33'0 0.0
2017-Sep-15 19:29N 60°07' E 006°33'0 0.0
2017-Sep-15 18:59N 60°07' E 006°33'0 0.0
2017-Sep-15 18:29N 60°07' E 006°33'0 0.0
2017-Sep-15 17:59N 60°07' E 006°33'0 0.0
2017-Sep-15 17:29N 60°07' E 006°33'0 0.0
2017-Sep-15 16:59N 60°07' E 006°33'0 0.0
2017-Sep-15 16:29N 60°07' E 006°33'0 0.0
2017-Sep-15 15:59N 60°07' E 006°33'0 0.0
2017-Sep-15 15:29N 60°07' E 006°33'0 0.0
2017-Sep-15 14:59N 60°07' E 006°33'0 0.0
2017-Sep-15 14:29N 60°07' E 006°33'0 0.0
2017-Sep-15 13:59N 60°07' E 006°33'0 0.0
2017-Sep-15 13:29N 60°07' E 006°33'0 0.0
2017-Sep-15 12:59N 60°07' E 006°33'0 0.0
2017-Sep-15 12:29N 60°07' E 006°33'0 0.0
2017-Sep-15 11:59N 60°07' E 006°33'0 0.0
2017-Sep-15 11:29N 60°07' E 006°33'0 0.0
2017-Sep-15 10:59N 60°07' E 006°33'0 0.0
2017-Sep-15 10:29N 60°07' E 006°33'0 0.0
2017-Sep-15 09:59N 60°07' E 006°33'0 0.0
2017-Sep-15 09:29N 60°07' E 006°33'0 0.0
2017-Sep-15 08:59N 60°07' E 006°33'0 0.0
2017-Sep-15 08:29N 60°07' E 006°33'0 0.0
2017-Sep-15 07:59N 60°07' E 006°33'0 0.0
2017-Sep-15 07:29N 60°07' E 006°33'0 0.0
2017-Sep-15 06:59N 60°07' E 006°33'0 0.0
2017-Sep-15 06:29N 60°07' E 006°33'0 0.0
2017-Sep-15 05:59N 60°07' E 006°33'0 0.0
2017-Sep-15 05:29N 60°07' E 006°33'0 0.0
2017-Sep-15 04:59N 60°07' E 006°33'0 0.0
2017-Sep-15 04:29N 60°07' E 006°33'0 0.0
2017-Sep-15 03:59N 60°07' E 006°33'0 0.0
2017-Sep-15 03:29N 60°07' E 006°33'0 0.0
2017-Sep-15 02:59N 60°07' E 006°33'0 0.0
2017-Sep-15 02:29N 60°07' E 006°33'0 0.0
2017-Sep-15 01:59N 60°07' E 006°33'0 0.0
2017-Sep-15 01:29N 60°07' E 006°33'0 0.0
2017-Sep-15 00:59N 60°07' E 006°33'0 0.0
2017-Sep-15 00:29N 60°07' E 006°33'0 0.0
2017-Sep-14 23:59N 60°07' E 006°33'0 0.0
2017-Sep-14 23:29N 60°07' E 006°33'0 0.0
2017-Sep-14 22:59N 60°07' E 006°33'0 0.0
2017-Sep-14 22:29N 60°07' E 006°33'0 0.0
2017-Sep-14 21:59N 60°07' E 006°33'0 0.0
2017-Sep-14 21:29N 60°07' E 006°33'0 0.0
2017-Sep-14 20:59N 60°07' E 006°33'0 0.0
2017-Sep-14 20:29N 60°07' E 006°33'0 0.0
2017-Sep-14 19:59N 60°07' E 006°33'0 0.0
2017-Sep-14 19:29N 60°07' E 006°33'0 0.0
2017-Sep-14 18:59N 60°07' E 006°33'0 0.0
2017-Sep-14 18:29N 60°07' E 006°33'0 0.0
2017-Sep-14 17:59N 60°07' E 006°33'0 0.0
2017-Sep-14 17:23N 60°07' E 006°33'0 0.0
2017-Sep-14 16:59N 60°07' E 006°33'0 0.0
2017-Sep-14 16:29N 60°07' E 006°33'0 0.0
2017-Sep-14 15:59N 60°07' E 006°33'0 0.0
2017-Sep-14 15:29N 60°07' E 006°33'0 0.0
2017-Sep-14 14:59N 60°07' E 006°33'0 0.0
2017-Sep-14 14:29N 60°07' E 006°33'0 0.0
2017-Sep-14 13:59N 60°07' E 006°33'0 0.0
2017-Sep-14 13:29N 60°07' E 006°33'0 0.0
2017-Sep-14 12:59N 60°07' E 006°33'0 0.0
2017-Sep-14 12:29N 60°07' E 006°33'0 0.0
2017-Sep-14 11:59N 60°07' E 006°33'0 0.0
2017-Sep-14 11:29N 60°07' E 006°33'0 0.0
2017-Sep-14 10:59N 60°07' E 006°33'0 0.0
2017-Sep-14 10:29N 60°07' E 006°33'0 0.0
2017-Sep-14 09:59N 60°07' E 006°33'0 0.0
2017-Sep-14 09:29N 60°07' E 006°33'0 0.0
2017-Sep-14 08:59N 60°07' E 006°33'0 0.0
2017-Sep-14 08:29N 60°07' E 006°33'0 0.0
2017-Sep-14 07:59N 60°07' E 006°33'0 0.0
2017-Sep-14 07:29N 60°07' E 006°33'0 0.0
2017-Sep-14 06:59N 60°07' E 006°33'0 0.0
2017-Sep-14 06:29N 60°07' E 006°33'0 0.0
2017-Sep-14 05:59N 60°07' E 006°33'0 0.0
2017-Sep-14 05:29N 60°07' E 006°33'0 0.0
2017-Sep-14 04:59N 60°07' E 006°33'0 0.0
2017-Sep-14 04:29N 60°07' E 006°33'0 0.0
2017-Sep-14 03:59N 60°07' E 006°33'0 0.0
2017-Sep-14 03:23N 60°07' E 006°33'0 0.0
2017-Sep-14 02:59N 60°07' E 006°33'0 0.0
2017-Sep-14 02:29N 60°07' E 006°33'0 0.0
2017-Sep-14 01:59N 60°07' E 006°33'0 0.0
2017-Sep-14 01:29N 60°07' E 006°33'0 0.0
2017-Sep-14 00:59N 60°07' E 006°33'0 0.0
2017-Sep-14 00:29N 60°07' E 006°33'0 0.0
2017-Sep-13 23:59N 60°07' E 006°33'0 0.0
2017-Sep-13 23:29N 60°07' E 006°33'0 0.0
2017-Sep-13 22:59N 60°07' E 006°33'0 0.0
2017-Sep-13 22:30N 60°07' E 006°33'0 0.5
2017-Sep-13 22:00N 60°07' E 006°33'1 2.3
2017-Sep-13 21:30N 60°09' E 006°33'3 6.1
2017-Sep-13 20:59N 60°12' E 006°34'510.2
2017-Sep-13 20:30N 60°17' E 006°37'510.3
2017-Sep-13 19:59N 60°22' E 006°39'4 8.8
2017-Sep-13 19:29N 60°26' E 006°38'5 9.6
2017-Sep-13 19:00N 60°25' E 006°28'611.8
2017-Sep-13 18:29N 60°21' E 006°19'511.3
2017-Sep-13 18:00N 60°17' E 006°13'611.2
2017-Sep-13 17:30N 60°12' E 006°05'611.2
2017-Sep-13 16:59N 60°07' E 006°05'611.5
2017-Sep-13 16:29N 60°02' E 005°58'611.9
2017-Sep-13 15:59N 59°58' E 005°50'611.8
2017-Sep-13 15:30N 59°53' E 005°43'611.5
2017-Sep-13 15:00N 59°49' E 005°36'611.4
2017-Sep-13 14:30N 59°44' E 005°30'611.6
2017-Sep-13 14:00N 59°40' E 005°22'611.9
2017-Sep-13 13:30N 59°35' E 005°15'611.5
2017-Sep-13 13:00N 59°30' E 005°12'611.1
2017-Sep-13 12:30N 59°24' E 005°08'611.8
2017-Sep-13 11:59N 59°18' E 005°06'611.6
2017-Sep-13 11:30N 59°13' E 005°07'611.2
2017-Sep-13 11:00N 59°07' E 005°09'3 6.2
2017-Sep-13 10:30N 59°05' E 005°12'3 7.0
2017-Sep-13 10:00N 59°02' E 005°07'0 0.6
2017-Sep-13 09:30N 59°02' E 005°07'0 0.3
2017-Sep-13 09:00N 59°02' E 005°07'0 0.9
2017-Sep-13 08:30N 59°02' E 005°08'1 2.0
2017-Sep-13 08:00N 59°01' E 005°09'510.4
2017-Sep-13 07:30N 58°56' E 005°09'612.0
2017-Sep-13 07:00N 58°50' E 005°11'611.8
2017-Sep-13 06:30N 58°44' E 005°14'612.0
2017-Sep-13 06:00N 58°38' E 005°14'612.1
2017-Sep-13 05:30N 58°32' E 005°16'612.5
2017-Sep-13 05:00N 58°26' E 005°18'612.0
2017-Sep-13 04:30N 58°21' E 005°24'611.5
2017-Sep-13 04:00N 58°16' E 005°30'  
Track history (hours):
 
Tides and Currents Weather Stations Pressure Air Temp Water Temp Dewpoint Dewpoint Depression Visibility Wind Speed Wind Dir Waves Ship Positions

Pola Atlantic

Last reported at 2017-Sep-21 18:55 UTC. Time now 2017-Sep-22 02:30 UTC.
Position N 55°46' E 016°44'.

Length 180 m; draft 7 m.

Type: Cargo ship. MMSI: 248769000.

Date/timePositionNaut miles runAvg speedWind from/ knotsBaromVisibWave heightAir tempDewpointWater temp
2017-Sep-21 18:55N 55°46' E 016°44'1012.2
2017-Sep-21 18:05N 55°45' E 016°26'112.4
2017-Sep-21 18:00N 55°44' E 016°24'612.4
2017-Sep-21 17:30N 55°43' E 016°14'612.5
2017-Sep-21 17:00N 55°42' E 016°03'1812.7
2017-Sep-21 15:35N 55°37' E 015°32'1212.6
2017-Sep-21 14:35N 55°32' E 015°11'612.5
2017-Sep-21 14:06N 55°30' E 015°02'412.4
2017-Sep-21 13:47N 55°28' E 014°55'412.4
2017-Sep-21 13:29N 55°26' E 014°49'612.4
2017-Sep-21 13:00N 55°24' E 014°40'612.3
2017-Sep-21 12:30N 55°19' E 014°33'612.4
2017-Sep-21 12:00N 55°14' E 014°26'612.6
2017-Sep-21 11:30N 55°09' E 014°19'612.8
2017-Sep-21 11:00N 55°04' E 014°13'612.3
2017-Sep-21 10:29N 55°00' E 014°04'4412.7
2017-Sep-21 07:02N 54°46' E 012°51'012.6
2017-Sep-21 07:00N 54°46' E 012°51'612.4
2017-Sep-21 06:30N 54°44' E 012°41'612.7
2017-Sep-21 06:00N 54°40' E 012°32'912.8
2017-Sep-21 05:19N 54°35' E 012°19'612.6
2017-Sep-21 04:52N 54°30' E 012°16'412.2
2017-Sep-21 04:30N 54°26' E 012°12'611.9
2017-Sep-21 04:00N 54°24' E 012°02'612.9
2017-Sep-21 03:30N 54°25' E 011°51'1212.9
2017-Sep-21 02:33N 54°29' E 011°32'113.3
2017-Sep-21 02:28N 54°30' E 011°30'612.8
2017-Sep-21 02:00N 54°32' E 011°21'612.7
2017-Sep-21 01:30N 54°35' E 011°11'612.6
2017-Sep-21 01:00N 54°38' E 011°02'612.8
2017-Sep-21 00:30N 54°42' E 010°53'612.1
2017-Sep-21 00:00N 54°48' E 010°52'612.0
2017-Sep-20 23:30N 54°54' E 010°53'611.5
2017-Sep-20 23:00N 54°58' E 010°59'611.7
2017-Sep-20 22:30N 55°04' E 011°02'612.1
2017-Sep-20 22:00N 55°10' E 011°03'611.0
2017-Sep-20 21:30N 55°16' E 011°04'612.7
2017-Sep-20 21:00N 55°22' E 011°02'114 7.1
2017-Sep-20 04:51N 57°15' E 011°33'613.1
2017-Sep-20 04:22N 57°21' E 011°29'512.7
2017-Sep-20 04:00N 57°25' E 011°26'612.0
2017-Sep-20 03:30N 57°30' E 011°20'612.6
2017-Sep-20 03:00N 57°34' E 011°10'612.8
2017-Sep-20 02:30N 57°39' E 011°02'712.5
2017-Sep-20 01:59N 57°43' E 010°53'612.2
2017-Sep-20 01:29N 57°47' E 010°45'611.9
2017-Sep-20 00:58N 57°48' E 010°33'612.8
2017-Sep-20 00:30N 57°48' E 010°22'712.5
2017-Sep-19 23:55N 57°48' E 010°08'8612.8
2017-Sep-19 17:14N 57°41' E 007°28'312.4
2017-Sep-19 16:59N 57°41' E 007°22'612.4
2017-Sep-19 16:30N 57°41' E 007°11'612.5
2017-Sep-19 16:00N 57°42' E 006°59'712.8
2017-Sep-19 15:29N 57°42' E 006°47'612.4
2017-Sep-19 15:00N 57°42' E 006°36'612.3
2017-Sep-19 14:30N 57°46' E 006°26'613.0
2017-Sep-19 14:00N 57°50' E 006°17'713.1
2017-Sep-19 13:30N 57°54' E 006°07'613.1
2017-Sep-19 13:00N 57°58' E 005°58'612.6
2017-Sep-19 12:30N 58°02' E 005°49'1512.7
2017-Sep-19 11:17N 58°13' E 005°27'712.7
2017-Sep-19 10:43N 58°17' E 005°17'312.5
2017-Sep-19 10:28N 58°20' E 005°13'1212.3
2017-Sep-19 09:28N 58°32' E 005°11'612.1
2017-Sep-19 09:00N 58°38' E 005°10'612.7
2017-Sep-19 08:30N 58°44' E 005°09'612.1
2017-Sep-19 08:00N 58°50' E 005°08'612.2
2017-Sep-19 07:30N 58°56' E 005°08'612.3
2017-Sep-19 07:00N 59°02' E 005°06'612.3
2017-Sep-19 06:30N 59°07' E 005°14'3 6.8
2017-Sep-19 06:00N 59°09' E 005°09'612.3
2017-Sep-19 05:29N 59°15' E 005°06'612.4
2017-Sep-19 05:00N 59°21' E 005°06'611.6
2017-Sep-19 04:30N 59°27' E 005°10'612.3
2017-Sep-19 04:00N 59°33' E 005°12'713.3
2017-Sep-19 03:29N 59°38' E 005°19'612.8
2017-Sep-19 03:00N 59°43' E 005°27'612.8
2017-Sep-19 02:30N 59°48' E 005°35'612.9
2017-Sep-19 02:00N 59°53' E 005°43'612.7
2017-Sep-19 01:30N 59°58' E 005°50'612.5
2017-Sep-19 01:00N 60°03' E 005°59'611.7
2017-Sep-19 00:30N 60°08' E 006°06'511.1
2017-Sep-19 00:00N 60°13' E 006°06'611.3
2017-Sep-18 23:30N 60°18' E 006°13'612.5
2017-Sep-18 23:00N 60°23' E 006°21'612.3
2017-Sep-18 22:30N 60°26' E 006°32'510.0
2017-Sep-18 22:00N 60°24' E 006°41'612.6
2017-Sep-18 21:30N 60°18' E 006°37'612.7
2017-Sep-18 21:00N 60°12' E 006°35'5 9.1
2017-Sep-18 20:30N 60°07' E 006°33'0 0.4
2017-Sep-18 19:59N 60°07' E 006°33'0 0.0
2017-Sep-18 19:29N 60°07' E 006°33'0 0.0
2017-Sep-18 18:59N 60°07' E 006°33'0 0.0
2017-Sep-18 18:29N 60°07' E 006°33'0 0.0
2017-Sep-18 17:59N 60°07' E 006°33'0 0.0
2017-Sep-18 17:29N 60°07' E 006°33'0 0.0
2017-Sep-18 16:59N 60°07' E 006°33'0 0.0
2017-Sep-18 16:29N 60°07' E 006°33'0 0.0
2017-Sep-18 15:59N 60°07' E 006°33'0 0.0
2017-Sep-18 15:29N 60°07' E 006°33'0 0.0
2017-Sep-18 14:59N 60°07' E 006°33'0 0.0
2017-Sep-18 14:29N 60°07' E 006°33'0 0.0
2017-Sep-18 13:59N 60°07' E 006°33'0 0.0
2017-Sep-18 13:29N 60°07' E 006°33'0 0.0
2017-Sep-18 12:59N 60°07' E 006°33'0 0.0
2017-Sep-18 12:29N 60°07' E 006°33'0 0.0
2017-Sep-18 11:59N 60°07' E 006°33'0 0.0
2017-Sep-18 11:29N 60°07' E 006°33'0 0.0
2017-Sep-18 10:59N 60°07' E 006°33'0 0.0
2017-Sep-18 10:29N 60°07' E 006°33'0 0.0
2017-Sep-18 09:59N 60°07' E 006°33'0 0.0
2017-Sep-18 09:29N 60°07' E 006°33'0 0.0
2017-Sep-18 08:59N 60°07' E 006°33'0 0.0
2017-Sep-18 08:29N 60°07' E 006°33'0 0.0
2017-Sep-18 07:59N 60°07' E 006°33'0 0.0
2017-Sep-18 07:29N 60°07' E 006°33'0 0.0
2017-Sep-18 06:59N 60°07' E 006°33'0 0.0
2017-Sep-18 06:29N 60°07' E 006°33'0 0.0
2017-Sep-18 05:59N 60°07' E 006°33'0 0.0
2017-Sep-18 05:29N 60°07' E 006°33'0 0.0
2017-Sep-18 04:59N 60°07' E 006°33'0 0.0
2017-Sep-18 04:29N 60°07' E 006°33'0 0.0
2017-Sep-18 03:59N 60°07' E 006°33'0 0.0
2017-Sep-18 03:29N 60°07' E 006°33'0 0.0
2017-Sep-18 02:59N 60°07' E 006°33'0 0.0
2017-Sep-18 02:29N 60°07' E 006°33'0 0.0
2017-Sep-18 01:59N 60°07' E 006°33'0 0.0
2017-Sep-18 01:29N 60°07' E 006°33'0 0.0
2017-Sep-18 00:59N 60°07' E 006°33'0 0.0
2017-Sep-18 00:29N 60°07' E 006°33'0 0.0
2017-Sep-17 23:59N 60°07' E 006°33'0 0.0
2017-Sep-17 23:29N 60°07' E 006°33'0 0.0
2017-Sep-17 22:59N 60°07' E 006°33'0 0.0
2017-Sep-17 22:29N 60°07' E 006°33'0 0.0
2017-Sep-17 21:59N 60°07' E 006°33'0 0.0
2017-Sep-17 21:29N 60°07' E 006°33'0 0.0
2017-Sep-17 20:59N 60°07' E 006°33'0 0.0
2017-Sep-17 20:29N 60°07' E 006°33'0 0.0
2017-Sep-17 19:59N 60°07' E 006°33'0 0.0
2017-Sep-17 19:29N 60°07' E 006°33'0 0.0
2017-Sep-17 18:59N 60°07' E 006°33'0 0.0
2017-Sep-17 18:29N 60°07' E 006°33'0 0.0
2017-Sep-17 17:59N 60°07' E 006°33'0 0.0
2017-Sep-17 17:29N 60°07' E 006°33'0 0.0
2017-Sep-17 16:59N 60°07' E 006°33'0 0.0
2017-Sep-17 16:29N 60°07' E 006°33'0 0.0
2017-Sep-17 15:59N 60°07' E 006°33'0 0.0
2017-Sep-17 15:29N 60°07' E 006°33'0 0.0
2017-Sep-17 14:59N 60°07' E 006°33'0 0.0
2017-Sep-17 14:29N 60°07' E 006°33'0 0.0
2017-Sep-17 13:59N 60°07' E 006°33'0 0.0
2017-Sep-17 13:29N 60°07' E 006°33'0 0.0
2017-Sep-17 12:59N 60°07' E 006°33'0 0.0
2017-Sep-17 12:29N 60°07' E 006°33'0 0.0
2017-Sep-17 11:59N 60°07' E 006°33'0 0.0
2017-Sep-17 11:29N 60°07' E 006°33'0 0.0
2017-Sep-17 10:59N 60°07' E 006°33'0 0.0
2017-Sep-17 10:26N 60°07' E 006°33'0 0.0
2017-Sep-17 09:59N 60°07' E 006°33'0 0.0
2017-Sep-17 09:29N 60°07' E 006°33'0 0.0
2017-Sep-17 08:59N 60°07' E 006°33'0 0.0
2017-Sep-17 08:29N 60°07' E 006°33'0 0.0
2017-Sep-17 07:59N 60°07' E 006°33'0 0.0
2017-Sep-17 07:29N 60°07' E 006°33'0 0.0
2017-Sep-17 06:59N 60°07' E 006°33'0 0.0
2017-Sep-17 06:29N 60°07' E 006°33'0 0.0
2017-Sep-17 05:59N 60°07' E 006°33'0 0.0
2017-Sep-17 05:29N 60°07' E 006°33'0 0.0
2017-Sep-17 04:59N 60°07' E 006°33'0 0.0
2017-Sep-17 04:29N 60°07' E 006°33'0 0.0
2017-Sep-17 03:59N 60°07' E 006°33'0 0.0
2017-Sep-17 03:29N 60°07' E 006°33'0 0.0
2017-Sep-17 02:59N 60°07' E 006°33'0 0.0
2017-Sep-17 02:29N 60°07' E 006°33'0 0.0
2017-Sep-17 01:59N 60°07' E 006°33'0 0.0
2017-Sep-17 01:29N 60°07' E 006°33'0 0.0
2017-Sep-17 00:59N 60°07' E 006°33'0 0.0
2017-Sep-17 00:29N 60°07' E 006°33'0 0.0
2017-Sep-16 23:59N 60°07' E 006°33'0 0.0
2017-Sep-16 23:29N 60°07' E 006°33'0 0.0
2017-Sep-16 22:59N 60°07' E 006°33'0 0.0
2017-Sep-16 22:29N 60°07' E 006°33'0 0.0
2017-Sep-16 21:59N 60°07' E 006°33'0 0.0
2017-Sep-16 21:29N 60°07' E 006°33'0 0.0
2017-Sep-16 20:59N 60°07' E 006°33'0 0.0
2017-Sep-16 20:29N 60°07' E 006°33'0 0.0
2017-Sep-16 19:59N 60°07' E 006°33'0 0.0
2017-Sep-16 19:29N 60°07' E 006°33'0 0.0
2017-Sep-16 18:59N 60°07' E 006°33'0 0.0
2017-Sep-16 18:29N 60°07' E 006°33'0 0.0
2017-Sep-16 17:59N 60°07' E 006°33'0 0.0
2017-Sep-16 17:29N 60°07' E 006°33'0 0.0
2017-Sep-16 16:59N 60°07' E 006°33'0 0.0
2017-Sep-16 16:29N 60°07' E 006°33'0 0.0
2017-Sep-16 15:59N 60°07' E 006°33'0 0.0
2017-Sep-16 15:29N 60°07' E 006°33'0 0.0
2017-Sep-16 14:59N 60°07' E 006°33'0 0.0
2017-Sep-16 14:29N 60°07' E 006°33'0 0.0
2017-Sep-16 13:59N 60°07' E 006°33'0 0.0
2017-Sep-16 13:29N 60°07' E 006°33'0 0.0
2017-Sep-16 12:59N 60°07' E 006°33'0 0.0
2017-Sep-16 12:29N 60°07' E 006°33'0 0.0
2017-Sep-16 11:59N 60°07' E 006°33'0 0.0
2017-Sep-16 11:29N 60°07' E 006°33'0 0.0
2017-Sep-16 10:59N 60°07' E 006°33'0 0.0
2017-Sep-16 10:29N 60°07' E 006°33'0 0.0
2017-Sep-16 09:59N 60°07' E 006°33'0 0.0
2017-Sep-16 09:29N 60°07' E 006°33'0 0.0
2017-Sep-16 08:59N 60°07' E 006°33'0 0.0
2017-Sep-16 08:29N 60°07' E 006°33'0 0.0
2017-Sep-16 07:59N 60°07' E 006°33'0 0.0
2017-Sep-16 07:29N 60°07' E 006°33'0 0.0
2017-Sep-16 06:59N 60°07' E 006°33'0 0.0
2017-Sep-16 06:29N 60°07' E 006°33'0 0.0
2017-Sep-16 05:59N 60°07' E 006°33'0 0.0
2017-Sep-16 05:29N 60°07' E 006°33'0 0.0
2017-Sep-16 04:59N 60°07' E 006°33'0 0.0
2017-Sep-16 04:29N 60°07' E 006°33'0 0.0
2017-Sep-16 03:53N 60°07' E 006°33'0 0.0
2017-Sep-16 03:29N 60°07' E 006°33'0 0.0
2017-Sep-16 02:59N 60°07' E 006°33'0 0.0
2017-Sep-16 02:29N 60°07' E 006°33'0 0.0
2017-Sep-16 01:59N 60°07' E 006°33'0 0.0
2017-Sep-16 01:29N 60°07' E 006°33'0 0.0
2017-Sep-16 00:59N 60°07' E 006°33'0 0.0
2017-Sep-16 00:29N 60°07' E 006°33'0 0.0
2017-Sep-15 23:59N 60°07' E 006°33'0 0.0
2017-Sep-15 23:29N 60°07' E 006°33'0 0.0
2017-Sep-15 22:59N 60°07' E 006°33'0 0.0
2017-Sep-15 22:29N 60°07' E 006°33'0 0.0
2017-Sep-15 21:59N 60°07' E 006°33'0 0.0
2017-Sep-15 21:29N 60°07' E 006°33'0 0.0
2017-Sep-15 20:59N 60°07' E 006°33'0 0.0
2017-Sep-15 20:29N 60°07' E 006°33'0 0.0
2017-Sep-15 19:59N 60°07' E 006°33'0 0.0
2017-Sep-15 19:29N 60°07' E 006°33'0 0.0
2017-Sep-15 18:59N 60°07' E 006°33'0 0.0
2017-Sep-15 18:29N 60°07' E 006°33'0 0.0
2017-Sep-15 17:59N 60°07' E 006°33'0 0.0
2017-Sep-15 17:29N 60°07' E 006°33'0 0.0
2017-Sep-15 16:59N 60°07' E 006°33'0 0.0
2017-Sep-15 16:29N 60°07' E 006°33'0 0.0
2017-Sep-15 15:59N 60°07' E 006°33'0 0.0
2017-Sep-15 15:29N 60°07' E 006°33'0 0.0
2017-Sep-15 14:59N 60°07' E 006°33'0 0.0
2017-Sep-15 14:29N 60°07' E 006°33'0 0.0
2017-Sep-15 13:59N 60°07' E 006°33'0 0.0
2017-Sep-15 13:29N 60°07' E 006°33'0 0.0
2017-Sep-15 12:59N 60°07' E 006°33'0 0.0
2017-Sep-15 12:29N 60°07' E 006°33'0 0.0
2017-Sep-15 11:59N 60°07' E 006°33'0 0.0
2017-Sep-15 11:29N 60°07' E 006°33'0 0.0
2017-Sep-15 10:59N 60°07' E 006°33'0 0.0
2017-Sep-15 10:29N 60°07' E 006°33'0 0.0
2017-Sep-15 09:59N 60°07' E 006°33'0 0.0
2017-Sep-15 09:29N 60°07' E 006°33'0 0.0
2017-Sep-15 08:59N 60°07' E 006°33'0 0.0
2017-Sep-15 08:29N 60°07' E 006°33'0 0.0
2017-Sep-15 07:59N 60°07' E 006°33'0 0.0
2017-Sep-15 07:29N 60°07' E 006°33'0 0.0
2017-Sep-15 06:59N 60°07' E 006°33'0 0.0
2017-Sep-15 06:29N 60°07' E 006°33'0 0.0
2017-Sep-15 05:59N 60°07' E 006°33'0 0.0
2017-Sep-15 05:29N 60°07' E 006°33'0 0.0
2017-Sep-15 04:59N 60°07' E 006°33'0 0.0
2017-Sep-15 04:29N 60°07' E 006°33'0 0.0
2017-Sep-15 03:59N 60°07' E 006°33'0 0.0
2017-Sep-15 03:29N 60°07' E 006°33'0 0.0
2017-Sep-15 02:59N 60°07' E 006°33'0 0.0
2017-Sep-15 02:29N 60°07' E 006°33'0 0.0
2017-Sep-15 01:59N 60°07' E 006°33'0 0.0
2017-Sep-15 01:29N 60°07' E 006°33'0 0.0
2017-Sep-15 00:59N 60°07' E 006°33'0 0.0
2017-Sep-15 00:29N 60°07' E 006°33'0 0.0
2017-Sep-14 23:59N 60°07' E 006°33'0 0.0
2017-Sep-14 23:29N 60°07' E 006°33'0 0.0
2017-Sep-14 22:59N 60°07' E 006°33'0 0.0
2017-Sep-14 22:29N 60°07' E 006°33'0 0.0
2017-Sep-14 21:59N 60°07' E 006°33'0 0.0
2017-Sep-14 21:29N 60°07' E 006°33'0 0.0
2017-Sep-14 20:59N 60°07' E 006°33'0 0.0
2017-Sep-14 20:29N 60°07' E 006°33'0 0.0
2017-Sep-14 19:59N 60°07' E 006°33'0 0.0
2017-Sep-14 19:29N 60°07' E 006°33'0 0.0
2017-Sep-14 18:59N 60°07' E 006°33'0 0.0
2017-Sep-14 18:29N 60°07' E 006°33'0 0.0
2017-Sep-14 17:59N 60°07' E 006°33'0 0.0
2017-Sep-14 17:23N 60°07' E 006°33'0 0.0
2017-Sep-14 16:59N 60°07' E 006°33'0 0.0
2017-Sep-14 16:29N 60°07' E 006°33'0 0.0
2017-Sep-14 15:59N 60°07' E 006°33'0 0.0
2017-Sep-14 15:29N 60°07' E 006°33'0 0.0
2017-Sep-14 14:59N 60°07' E 006°33'0 0.0
2017-Sep-14 14:29N 60°07' E 006°33'0 0.0
2017-Sep-14 13:59N 60°07' E 006°33'0 0.0
2017-Sep-14 13:29N 60°07' E 006°33'0 0.0
2017-Sep-14 12:59N 60°07' E 006°33'0 0.0
2017-Sep-14 12:29N 60°07' E 006°33'0 0.0
2017-Sep-14 11:59N 60°07' E 006°33'0 0.0
2017-Sep-14 11:29N 60°07' E 006°33'0 0.0
2017-Sep-14 10:59N 60°07' E 006°33'0 0.0
2017-Sep-14 10:29N 60°07' E 006°33'0 0.0
2017-Sep-14 09:59N 60°07' E 006°33'0 0.0
2017-Sep-14 09:29N 60°07' E 006°33'0 0.0
2017-Sep-14 08:59N 60°07' E 006°33'0 0.0
2017-Sep-14 08:29N 60°07' E 006°33'0 0.0
2017-Sep-14 07:59N 60°07' E 006°33'0 0.0
2017-Sep-14 07:29N 60°07' E 006°33'0 0.0
2017-Sep-14 06:59N 60°07' E 006°33'0 0.0
2017-Sep-14 06:29N 60°07' E 006°33'0 0.0
2017-Sep-14 05:59N 60°07' E 006°33'0 0.0
2017-Sep-14 05:29N 60°07' E 006°33'0 0.0
2017-Sep-14 04:59N 60°07' E 006°33'0 0.0
2017-Sep-14 04:29N 60°07' E 006°33'0 0.0
2017-Sep-14 03:59N 60°07' E 006°33'0 0.0
2017-Sep-14 03:23N 60°07' E 006°33'0 0.0
2017-Sep-14 02:59N 60°07' E 006°33'0 0.0
2017-Sep-14 02:29N 60°07' E 006°33'0 0.0
2017-Sep-14 01:59N 60°07' E 006°33'0 0.0
2017-Sep-14 01:29N 60°07' E 006°33'0 0.0
2017-Sep-14 00:59N 60°07' E 006°33'0 0.0
2017-Sep-14 00:29N 60°07' E 006°33'0 0.0
2017-Sep-13 23:59N 60°07' E 006°33'0 0.0
2017-Sep-13 23:29N 60°07' E 006°33'0 0.0
2017-Sep-13 22:59N 60°07' E 006°33'0 0.0
2017-Sep-13 22:30N 60°07' E 006°33'0 0.5
2017-Sep-13 22:00N 60°07' E 006°33'1 2.3
2017-Sep-13 21:30N 60°09' E 006°33'3 6.1
2017-Sep-13 20:59N 60°12' E 006°34'510.2
2017-Sep-13 20:30N 60°17' E 006°37'510.3
2017-Sep-13 19:59N 60°22' E 006°39'4 8.8
2017-Sep-13 19:29N 60°26' E 006°38'5 9.6
2017-Sep-13 19:00N 60°25' E 006°28'611.8
2017-Sep-13 18:29N 60°21' E 006°19'511.3
2017-Sep-13 18:00N 60°17' E 006°13'611.2
2017-Sep-13 17:30N 60°12' E 006°05'611.2
2017-Sep-13 16:59N 60°07' E 006°05'611.5
2017-Sep-13 16:29N 60°02' E 005°58'611.9
2017-Sep-13 15:59N 59°58' E 005°50'611.8
2017-Sep-13 15:30N 59°53' E 005°43'611.5
2017-Sep-13 15:00N 59°49' E 005°36'611.4
2017-Sep-13 14:30N 59°44' E 005°30'611.6
2017-Sep-13 14:00N 59°40' E 005°22'611.9
2017-Sep-13 13:30N 59°35' E 005°15'611.5
2017-Sep-13 13:00N 59°30' E 005°12'611.1
2017-Sep-13 12:30N 59°24' E 005°08'611.8
2017-Sep-13 11:59N 59°18' E 005°06'611.6
2017-Sep-13 11:30N 59°13' E 005°07'611.2
2017-Sep-13 11:00N 59°07' E 005°09'3 6.2
2017-Sep-13 10:30N 59°05' E 005°12'3 7.0
2017-Sep-13 10:00N 59°02' E 005°07'0 0.6
2017-Sep-13 09:30N 59°02' E 005°07'0 0.3
2017-Sep-13 09:00N 59°02' E 005°07'0 0.9
2017-Sep-13 08:30N 59°02' E 005°08'1 2.0
2017-Sep-13 08:00N 59°01' E 005°09'510.4
2017-Sep-13 07:30N 58°56' E 005°09'612.0
2017-Sep-13 07:00N 58°50' E 005°11'611.8
2017-Sep-13 06:30N 58°44' E 005°14'612.0
2017-Sep-13 06:00N 58°38' E 005°14'612.1
2017-Sep-13 05:30N 58°32' E 005°16'612.5
2017-Sep-13 05:00N 58°26' E 005°18'612.0
2017-Sep-13 04:30N 58°21' E 005°24'611.5
2017-Sep-13 04:00N 58°16' E 005°30'  

Dump ship's entire track history